Flowood, Mississippi
Current Conditions -  °F | °C
As of 10:54 AM on Saturday 25 Oct 2014 (Local Time) from KJAN Reporting Station
Clear Clear  
Wind Chill: 72°   Ceiling: Unl
Heat Index: 72°   Visibility: 10mi
Dew Point: 55°   Wind: 3mph
Humidity: 55%   Direction: 320°NW
Pressure: 30.17"   Gusts: NA
Location:  32.3087°N, 90.1392°W
Report Text: KJAN 251554Z 32003KT 10SM CLR 22/13 A3017 RMK AO2 SLP213 T02220128
Loading
Personal Weather Stations






























Interactive Weather Map
Tropical Storm Tracking
New forecast layout! Learn more

10-Day Weather Forecast

Advertisements
Track Severe Weather on mobile